Time;durP1;ratioP1;P1;durP2;ratioP2;P2;SDS_P1;SDS_P2;PMS_P1;PMS_P2;Temp;Humidity;BMP_temperature;BMP_pressure;BME280_temperature;BME280_humidity;BME280_pressure;Samples;Min_cycle;Max_cycle;Signal;HPM_P1;HPM_P2
2021/06/14 00:01:38;;;;;;;1.10;1.00;;;;;;;;;;5051467;28;20424;-74
2021/06/14 00:04:04;;;;;;;1.47;0.77;;;;;;;;;;5065349;28;20407;-74
2021/06/14 00:06:31;;;;;;;1.20;1.10;;;;;;;;;;5071674;28;20430;-74
2021/06/14 00:08:57;;;;;;;0.90;0.70;;;;;;;;;;5070877;28;20402;-74
2021/06/14 00:11:23;;;;;;;1.90;1.80;;;;;;;;;;5072559;28;20269;-73
2021/06/14 00:13:49;;;;;;;1.10;0.97;;;;;;;;;;5071483;28;20400;-74
2021/06/14 00:16:15;;;;;;;0.80;0.80;;;;;;;;;;5055124;28;20838;-75
2021/06/14 00:18:41;;;;;;;1.10;0.93;;;;;;;;;;5053495;28;20452;-74
2021/06/14 00:21:09;;;;;;;0.80;0.70;;;;;;;;;;5061537;28;20503;-74
2021/06/14 00:23:36;;;;;;;1.00;0.80;;;;;;;;;;5068523;28;20504;-73
2021/06/14 00:26:03;;;;;;;0.80;0.80;;;;;;;;;;5065709;28;20503;-73
2021/06/14 00:28:29;;;;;;;0.80;0.60;;;;;;;;;;5052239;28;20188;-75
2021/06/14 00:30:56;;;;;;;2.33;1.08;;;;;;;;;;5054053;28;20825;-73
2021/06/14 00:33:22;;;;;;;1.00;0.90;;;;;;;;;;5071794;28;20225;-73
2021/06/14 00:35:48;;;;;;;1.00;0.90;;;;;;;;;;5071560;28;20209;-73
2021/06/14 00:38:15;;;;;;;1.15;1.05;;;;;;;;;;5071625;28;20176;-73
2021/06/14 00:40:41;;;;;;;1.60;0.82;;;;;;;;;;5072073;28;20186;-73
2021/06/14 00:43:08;;;;;;;1.50;1.00;;;;;;;;;;5070659;28;20233;-75
2021/06/14 00:45:36;;;;;;;0.90;0.65;;;;;;;;;;5070751;28;20511;-73
2021/06/14 00:48:03;;;;;;;1.55;1.15;;;;;;;;;;5071628;28;20544;-73
2021/06/14 00:50:33;;;;;;;1.88;1.27;;;;;;;;;;5062966;28;20672;-73
2021/06/14 00:52:59;;;;;;;1.90;1.80;;;;;;;;;;5071747;28;20198;-73
2021/06/14 00:55:25;;;;;;;1.00;0.90;;;;;;;;;;5071969;28;20611;-74
2021/06/14 00:57:51;;;;;;;2.22;1.42;;;;;;;;;;5069928;28;20470;-73
2021/06/14 01:00:18;;;;;;;1.20;0.98;;;;;;;;;;5067098;28;20255;-73
2021/06/14 01:02:44;;;;;;;1.10;0.95;;;;;;;;;;5051776;28;20589;-73
2021/06/14 01:05:10;;;;;;;1.00;0.90;;;;;;;;;;5053609;28;20680;-73
2021/06/14 01:07:37;;;;;;;1.13;1.02;;;;;;;;;;5071133;28;20183;-74
2021/06/14 01:10:04;;;;;;;1.23;0.75;;;;;;;;;;5071733;28;20216;-73
2021/06/14 01:12:33;;;;;;;1.20;1.10;;;;;;;;;;5071452;28;20188;-73
2021/06/14 01:15:20;;;;;;;1.80;1.35;;;;;;;;;;5070755;28;20402;-74
2021/06/14 01:17:58;;;;;;;1.00;0.90;;;;;;;;;;5069332;28;20206;-73
2021/06/14 01:20:43;;;;;;;2.47;1.60;;;;;;;;;;5059932;28;20516;-74
2021/06/14 01:23:24;;;;;;;0.90;0.60;;;;;;;;;;5051279;28;20170;-74
2021/06/14 01:25:52;;;;;;;1.85;1.10;;;;;;;;;;5051275;28;20677;-74
2021/06/14 01:28:19;;;;;;;1.00;0.82;;;;;;;;;;5051450;28;20703;-73
2021/06/14 01:30:46;;;;;;;1.67;1.50;;;;;;;;;;5057355;28;20177;-73
2021/06/14 01:33:14;;;;;;;1.10;0.90;;;;;;;;;;5070920;28;20182;-73
2021/06/14 01:35:43;;;;;;;1.05;0.95;;;;;;;;;;5069840;28;20588;-75
2021/06/14 01:38:09;;;;;;;2.22;1.77;;;;;;;;;;5069468;28;20716;-72
2021/06/14 01:40:36;;;;;;;1.10;1.00;;;;;;;;;;5070656;28;20212;-74
2021/06/14 01:43:04;;;;;;;1.33;1.23;;;;;;;;;;5071290;28;20230;-73
2021/06/14 01:45:32;;;;;;;1.67;1.58;;;;;;;;;;5056509;28;20203;-73
2021/06/14 01:47:59;;;;;;;1.10;0.95;;;;;;;;;;5053510;28;20549;-73
2021/06/14 01:50:27;;;;;;;0.90;0.80;;;;;;;;;;5061846;28;20185;-72
2021/06/14 01:52:53;;;;;;;1.55;1.20;;;;;;;;;;5074508;28;20269;-72
2021/06/14 01:55:20;;;;;;;1.08;0.98;;;;;;;;;;5074892;28;20193;-72
2021/06/14 01:57:47;;;;;;;1.92;1.83;;;;;;;;;;5073302;28;20197;-73
2021/06/14 02:00:14;;;;;;;1.75;1.30;;;;;;;;;;5060181;28;20189;-73
2021/06/14 02:02:40;;;;;;;1.27;1.00;;;;;;;;;;5054989;28;20259;-75
2021/06/14 02:05:07;;;;;;;1.00;0.90;;;;;;;;;;5057621;28;20196;-73
2021/06/14 02:07:33;;;;;;;0.90;0.80;;;;;;;;;;5074153;28;20230;-74
2021/06/14 02:09:59;;;;;;;1.30;0.80;;;;;;;;;;5074817;28;20209;-73
2021/06/14 02:12:27;;;;;;;2.55;1.55;;;;;;;;;;5073852;28;20232;-72
2021/06/14 02:14:53;;;;;;;1.20;0.90;;;;;;;;;;5062969;28;20178;-73
2021/06/14 02:17:20;;;;;;;1.15;0.95;;;;;;;;;;5054423;28;20678;-73
2021/06/14 02:19:47;;;;;;;1.38;1.02;;;;;;;;;;5054738;28;20182;-74
2021/06/14 02:22:14;;;;;;;0.98;0.85;;;;;;;;;;5071097;28;20177;-74
2021/06/14 02:24:41;;;;;;;1.15;1.05;;;;;;;;;;5074398;28;20184;-73
2021/06/14 02:27:08;;;;;;;1.20;0.93;;;;;;;;;;5068025;28;20735;-73
2021/06/14 02:29:34;;;;;;;0.90;0.70;;;;;;;;;;5054557;28;20185;-73
2021/06/14 02:32:00;;;;;;;1.67;1.57;;;;;;;;;;5053136;28;20189;-72
2021/06/14 02:34:26;;;;;;;1.10;1.00;;;;;;;;;;5053887;28;20398;-73
2021/06/14 02:36:53;;;;;;;1.38;1.27;;;;;;;;;;5072426;28;20585;-73
2021/06/14 02:39:22;;;;;;;1.00;0.85;;;;;;;;;;5073966;28;20640;-73
2021/06/14 02:41:48;;;;;;;1.27;0.90;;;;;;;;;;5070302;28;20266;-73
2021/06/14 02:44:15;;;;;;;1.00;0.90;;;;;;;;;;5074349;28;20251;-72
2021/06/14 02:46:42;;;;;;;0.90;0.70;;;;;;;;;;5074036;28;20410;-72
2021/06/14 02:49:09;;;;;;;1.58;1.20;;;;;;;;;;5074018;28;20205;-73
2021/06/14 02:51:36;;;;;;;1.08;0.98;;;;;;;;;;5067126;28;20189;-73
2021/06/14 02:54:04;;;;;;;1.20;1.05;;;;;;;;;;5054165;28;20197;-73
2021/06/14 02:56:31;;;;;;;0.90;0.65;;;;;;;;;;5055505;28;20203;-73
2021/06/14 02:58:57;;;;;;;2.08;1.05;;;;;;;;;;5072825;28;20204;-72
2021/06/14 03:01:23;;;;;;;1.00;0.88;;;;;;;;;;5073908;28;20631;-74
2021/06/14 03:03:52;;;;;;;1.20;0.80;;;;;;;;;;5073227;28;20200;-73
2021/06/14 03:06:19;;;;;;;0.90;0.70;;;;;;;;;;5095336;22;20474;-76
2021/06/14 03:08:46;;;;;;;1.00;0.80;;;;;;;;;;5073595;28;20643;-76
2021/06/14 03:11:13;;;;;;;1.00;0.90;;;;;;;;;;5073934;28;20706;-76
2021/06/14 03:13:44;;;;;;;0.95;0.77;;;;;;;;;;5073667;28;20174;-76
2021/06/14 03:16:10;;;;;;;0.95;0.85;;;;;;;;;;5073237;28;20202;-76
2021/06/14 03:18:37;;;;;;;1.17;0.90;;;;;;;;;;5073398;28;20186;-75
2021/06/14 03:21:03;;;;;;;1.13;0.77;;;;;;;;;;5072890;28;20181;-76
2021/06/14 03:23:29;;;;;;;1.00;0.80;;;;;;;;;;5073453;28;20257;-76
2021/06/14 03:25:55;;;;;;;1.50;1.20;;;;;;;;;;5080650;28;20292;-76
2021/06/14 03:28:21;;;;;;;1.53;0.80;;;;;;;;;;5073723;28;20410;-76
2021/06/14 03:30:48;;;;;;;1.40;0.90;;;;;;;;;;5074526;28;20496;-76
2021/06/14 03:33:17;;;;;;;1.00;0.73;;;;;;;;;;5074503;28;20591;-76
2021/06/14 03:35:43;;;;;;;1.25;1.15;;;;;;;;;;5074147;28;20202;-73
2021/06/14 03:38:09;;;;;;;0.90;0.70;;;;;;;;;;5064856;28;20188;-75
2021/06/14 03:40:35;;;;;;;1.50;1.40;;;;;;;;;;5089953;28;20181;-74
2021/06/14 03:43:02;;;;;;;1.00;0.90;;;;;;;;;;5082232;28;20184;-74
2021/06/14 03:45:28;;;;;;;1.00;0.70;;;;;;;;;;5072655;28;20683;-75
2021/06/14 03:47:54;;;;;;;1.20;0.80;;;;;;;;;;5072922;28;20272;-75
2021/06/14 03:50:20;;;;;;;1.15;1.00;;;;;;;;;;5073155;28;20531;-75
2021/06/14 03:52:46;;;;;;;0.90;0.70;;;;;;;;;;5072844;28;20222;-75
2021/06/14 03:55:12;;;;;;;2.93;1.43;;;;;;;;;;5072891;28;20431;-75
2021/06/14 03:57:39;;;;;;;1.40;1.30;;;;;;;;;;5072411;28;20565;-75
2021/06/14 04:00:06;;;;;;;2.20;0.90;;;;;;;;;;5072147;28;20249;-75
2021/06/14 04:02:32;;;;;;;1.30;1.20;;;;;;;;;;5072845;28;20303;-75
2021/06/14 04:04:58;;;;;;;1.17;1.07;;;;;;;;;;5072581;28;20256;-74
2021/06/14 04:07:24;;;;;;;0.90;0.70;;;;;;;;;;5062602;28;20832;-75
2021/06/14 04:09:50;;;;;;;1.80;1.27;;;;;;;;;;5075127;28;20184;-75
2021/06/14 04:12:17;;;;;;;1.13;0.70;;;;;;;;;;5072632;28;20177;-72
2021/06/14 04:14:43;;;;;;;1.00;0.90;;;;;;;;;;5070882;28;20237;-72
2021/06/14 04:17:10;;;;;;;1.02;0.80;;;;;;;;;;5072051;28;20658;-72
2021/06/14 04:19:36;;;;;;;1.00;0.70;;;;;;;;;;5072466;28;20211;-72
2021/06/14 04:22:03;;;;;;;1.20;0.90;;;;;;;;;;5072069;28;20182;-72
2021/06/14 04:24:29;;;;;;;1.05;0.90;;;;;;;;;;5071363;28;20177;-72
2021/06/14 04:26:55;;;;;;;0.90;0.70;;;;;;;;;;5071738;28;20307;-72
2021/06/14 04:29:21;;;;;;;0.93;0.70;;;;;;;;;;5072167;28;20409;-72
2021/06/14 04:31:47;;;;;;;1.10;1.00;;;;;;;;;;5072167;28;20268;-72
2021/06/14 04:34:13;;;;;;;1.20;0.70;;;;;;;;;;5072169;28;20382;-72
2021/06/14 04:36:39;;;;;;;0.90;0.63;;;;;;;;;;5071292;28;20214;-72
2021/06/14 04:39:05;;;;;;;1.87;1.17;;;;;;;;;;5071952;28;20236;-72
2021/06/14 04:41:31;;;;;;;1.17;1.02;;;;;;;;;;5072043;28;20411;-71
2021/06/14 04:43:57;;;;;;;1.33;1.23;;;;;;;;;;5071662;28;20734;-72
2021/06/14 04:46:23;;;;;;;0.90;0.70;;;;;;;;;;5071750;28;20482;-72
2021/06/14 04:48:49;;;;;;;2.75;1.05;;;;;;;;;;5072018;28;20460;-72
2021/06/14 04:51:15;;;;;;;1.00;0.80;;;;;;;;;;5072665;28;20234;-72
2021/06/14 04:53:41;;;;;;;1.00;0.83;;;;;;;;;;5071636;28;20405;-72
2021/06/14 04:56:07;;;;;;;0.90;0.70;;;;;;;;;;5071502;28;20446;-72
2021/06/14 04:58:34;;;;;;;0.90;0.80;;;;;;;;;;5071903;28;20454;-72
2021/06/14 05:01:00;;;;;;;0.90;0.80;;;;;;;;;;5071402;28;20880;-72
2021/06/14 05:03:26;;;;;;;0.90;0.60;;;;;;;;;;5071773;28;20404;-72
2021/06/14 05:05:52;;;;;;;0.90;0.80;;;;;;;;;;5070489;28;20462;-72
2021/06/14 05:08:19;;;;;;;0.90;0.70;;;;;;;;;;5070070;28;20916;-72
2021/06/14 05:10:45;;;;;;;1.00;0.80;;;;;;;;;;5071687;28;20393;-73
2021/06/14 05:13:11;;;;;;;1.23;1.13;;;;;;;;;;5069625;28;20450;-76
2021/06/14 05:15:37;;;;;;;1.00;0.90;;;;;;;;;;5072409;28;20796;-76
2021/06/14 05:18:04;;;;;;;1.10;1.00;;;;;;;;;;5076588;28;20460;-76
2021/06/14 05:20:30;;;;;;;1.53;1.43;;;;;;;;;;5082929;28;20476;-75
2021/06/14 05:22:57;;;;;;;0.90;0.70;;;;;;;;;;5074761;28;20538;-75
2021/06/14 05:25:23;;;;;;;0.90;0.73;;;;;;;;;;5074239;28;20408;-76
2021/06/14 05:27:49;;;;;;;0.90;0.80;;;;;;;;;;5071036;28;20443;-76
2021/06/14 05:30:15;;;;;;;0.90;0.73;;;;;;;;;;5077921;28;20493;-77
2021/06/14 05:32:42;;;;;;;0.90;0.67;;;;;;;;;;5076391;28;20405;-76
2021/06/14 05:35:08;;;;;;;1.10;1.00;;;;;;;;;;5075959;28;20488;-76
2021/06/14 05:37:35;;;;;;;0.90;0.70;;;;;;;;;;5077532;28;20560;-75
2021/06/14 05:40:01;;;;;;;4.83;1.37;;;;;;;;;;5075989;28;20393;-75
2021/06/14 05:42:27;;;;;;;1.10;1.00;;;;;;;;;;5074170;28;20420;-76
2021/06/14 05:44:53;;;;;;;0.90;0.60;;;;;;;;;;5076018;28;20823;-76
2021/06/14 05:47:19;;;;;;;0.90;0.63;;;;;;;;;;5075724;28;20437;-76
2021/06/14 05:49:45;;;;;;;1.10;1.00;;;;;;;;;;5076192;28;20410;-76
2021/06/14 05:52:11;;;;;;;0.90;0.70;;;;;;;;;;5076152;28;20437;-76
2021/06/14 05:54:37;;;;;;;1.00;0.80;;;;;;;;;;5075762;28;20410;-75
2021/06/14 05:57:03;;;;;;;1.30;1.13;;;;;;;;;;5075454;28;20513;-75
2021/06/14 05:59:29;;;;;;;1.50;1.40;;;;;;;;;;5075364;28;20538;-75
2021/06/14 06:01:55;;;;;;;0.90;0.60;;;;;;;;;;5075686;28;20377;-76
2021/06/14 06:04:21;;;;;;;1.00;0.70;;;;;;;;;;5075868;28;20901;-75
2021/06/14 06:06:47;;;;;;;0.90;0.80;;;;;;;;;;5075733;28;20850;-77
2021/06/14 06:09:13;;;;;;;1.10;0.83;;;;;;;;;;5076311;28;20416;-77
2021/06/14 06:11:39;;;;;;;1.47;0.90;;;;;;;;;;5077208;28;20414;-76
2021/06/14 06:14:05;;;;;;;1.30;1.20;;;;;;;;;;5064557;28;20776;-77
2021/06/14 06:16:32;;;;;;;0.90;0.77;;;;;;;;;;5079264;28;20501;-76
2021/06/14 06:18:57;;;;;;;1.00;0.63;;;;;;;;;;5088825;28;20420;-76
2021/06/14 06:21:23;;;;;;;1.00;0.70;;;;;;;;;;5076414;28;20945;-77
2021/06/14 06:23:49;;;;;;;0.87;0.67;;;;;;;;;;5075225;28;20423;-77
2021/06/14 06:26:15;;;;;;;1.10;1.00;;;;;;;;;;5075211;28;20484;-77
2021/06/14 06:28:41;;;;;;;0.93;0.70;;;;;;;;;;5075398;28;20932;-77
2021/06/14 06:31:10;;;;;;;0.83;0.60;;;;;;;;;;5068375;28;20420;-77
2021/06/14 06:33:37;;;;;;;1.00;0.67;;;;;;;;;;5055174;28;20465;-77
2021/06/14 06:36:04;;;;;;;1.53;0.70;;;;;;;;;;5060007;28;20847;-74
2021/06/14 06:38:30;;;;;;;0.90;0.70;;;;;;;;;;5075249;28;20476;-77
2021/06/14 06:40:56;;;;;;;1.00;0.80;;;;;;;;;;5076943;28;20902;-77
2021/06/14 06:43:22;;;;;;;0.80;0.60;;;;;;;;;;5082436;28;20415;-73
2021/06/14 06:45:48;;;;;;;0.97;0.60;;;;;;;;;;5074458;28;20934;-76
2021/06/14 06:48:14;;;;;;;0.90;0.73;;;;;;;;;;5074664;28;20466;-77
2021/06/14 06:50:40;;;;;;;0.90;0.60;;;;;;;;;;5077577;28;20946;-77
2021/06/14 06:53:06;;;;;;;1.30;1.20;;;;;;;;;;5089357;28;20415;-77
2021/06/14 06:55:32;;;;;;;0.80;0.60;;;;;;;;;;5075692;28;20411;-77
2021/06/14 06:57:58;;;;;;;0.90;0.60;;;;;;;;;;5074299;28;20482;-77
2021/06/14 07:00:25;;;;;;;0.80;0.60;;;;;;;;;;5074206;28;20411;-77
2021/06/14 07:02:51;;;;;;;0.80;0.60;;;;;;;;;;5074737;28;20415;-76
2021/06/14 07:05:17;;;;;;;1.10;1.00;;;;;;;;;;5091837;28;20920;-76
2021/06/14 07:07:44;;;;;;;1.03;0.93;;;;;;;;;;5071178;28;20454;-75
2021/06/14 07:10:10;;;;;;;0.97;0.87;;;;;;;;;;5068945;28;20419;-77
2021/06/14 07:12:37;;;;;;;1.20;0.83;;;;;;;;;;5074698;28;20426;-77
2021/06/14 07:15:04;;;;;;;1.27;0.70;;;;;;;;;;5074420;28;20452;-77
2021/06/14 07:17:30;;;;;;;0.80;0.60;;;;;;;;;;5073967;28;20459;-76
2021/06/14 07:19:56;;;;;;;0.90;0.80;;;;;;;;;;5080270;28;20418;-77
2021/06/14 07:22:22;;;;;;;0.90;0.70;;;;;;;;;;5092781;28;21010;-77
2021/06/14 07:24:48;;;;;;;0.80;0.70;;;;;;;;;;5073970;28;20403;-77
2021/06/14 07:27:14;;;;;;;0.80;0.70;;;;;;;;;;5073849;28;20436;-76
2021/06/14 07:29:40;;;;;;;0.80;0.60;;;;;;;;;;5073737;28;20416;-77
2021/06/14 07:32:06;;;;;;;0.80;0.80;;;;;;;;;;5074362;28;20412;-76
2021/06/14 07:34:32;;;;;;;0.80;0.67;;;;;;;;;;5073941;28;20433;-76
2021/06/14 07:36:58;;;;;;;1.20;1.10;;;;;;;;;;5072805;28;21013;-76
2021/06/14 07:39:25;;;;;;;1.13;0.90;;;;;;;;;;5072659;28;20433;-76
2021/06/14 07:41:51;;;;;;;0.90;0.70;;;;;;;;;;5071743;28;20436;-77
2021/06/14 07:44:17;;;;;;;1.10;0.70;;;;;;;;;;5070266;28;20823;-77
2021/06/14 07:46:43;;;;;;;2.23;1.17;;;;;;;;;;5069737;28;20447;-77
2021/06/14 07:49:09;;;;;;;1.00;0.90;;;;;;;;;;5073870;28;20416;-77
2021/06/14 07:51:35;;;;;;;0.80;0.67;;;;;;;;;;5056308;28;20470;-77
2021/06/14 07:54:01;;;;;;;0.93;0.80;;;;;;;;;;5054146;28;20463;-77
2021/06/14 07:56:27;;;;;;;1.00;0.83;;;;;;;;;;5052875;28;20492;-76
2021/06/14 07:58:53;;;;;;;1.93;0.93;;;;;;;;;;5069700;28;20420;-76
2021/06/14 08:01:19;;;;;;;1.07;0.70;;;;;;;;;;5066965;28;20809;-76
2021/06/14 08:03:48;;;;;;;1.20;1.10;;;;;;;;;;5059346;28;20441;-75
2021/06/14 08:06:14;;;;;;;0.80;0.60;;;;;;;;;;5070901;28;20473;-74
2021/06/14 08:08:42;;;;;;;0.90;0.70;;;;;;;;;;5077297;28;20562;-78
2021/06/14 08:11:08;;;;;;;0.90;0.80;;;;;;;;;;5073056;28;20420;-76
2021/06/14 08:13:34;;;;;;;1.10;0.93;;;;;;;;;;5070737;28;20525;-76
2021/06/14 08:16:01;;;;;;;0.73;0.70;;;;;;;;;;5071373;28;20454;-77
2021/06/14 08:26:16;;;;;;;1.00;0.90;;;;;;;;;;5072333;28;20935;-75
2021/06/14 08:28:42;;;;;;;0.90;0.77;;;;;;;;;;5064693;28;20438;-75
2021/06/14 08:31:08;;;;;;;1.00;0.90;;;;;;;;;;5067355;28;20427;-76
2021/06/14 08:33:34;;;;;;;1.40;0.80;;;;;;;;;;5072496;28;20439;-76
2021/06/14 08:36:00;;;;;;;0.70;0.60;;;;;;;;;;5087182;28;20445;-76
2021/06/14 08:38:26;;;;;;;0.70;0.60;;;;;;;;;;5071130;28;20431;-77
2021/06/14 08:40:52;;;;;;;0.73;0.70;;;;;;;;;;5072302;28;20962;-75
2021/06/14 08:43:22;;;;;;;0.80;0.80;;;;;;;;;;5072200;28;20429;-75
2021/06/14 08:45:49;;;;;;;2.60;0.90;;;;;;;;;;5072836;28;20450;-76
2021/06/14 08:48:15;;;;;;;0.80;0.70;;;;;;;;;;5073734;28;20494;-77
2021/06/14 08:50:41;;;;;;;1.93;0.70;;;;;;;;;;5073641;28;20441;-76
2021/06/14 08:53:07;;;;;;;1.00;0.70;;;;;;;;;;5071982;28;20415;-77
2021/06/14 08:55:34;;;;;;;1.53;1.07;;;;;;;;;;5074910;28;20464;-76
2021/06/14 08:58:00;;;;;;;1.07;0.80;;;;;;;;;;5070453;28;20469;-77
2021/06/14 09:00:27;;;;;;;1.67;1.00;;;;;;;;;;5072170;28;20459;-77
2021/06/14 09:02:53;;;;;;;2.00;0.93;;;;;;;;;;5072810;28;20435;-75
2021/06/14 09:05:21;;;;;;;1.80;0.80;;;;;;;;;;5069787;28;20437;-77
2021/06/14 09:10:23;;;;;;;0.70;0.60;;;;;;;;;;5068343;28;20470;-75
2021/06/14 09:12:49;;;;;;;1.37;1.10;;;;;;;;;;5063425;28;20871;-75
2021/06/14 09:15:15;;;;;;;1.00;0.67;;;;;;;;;;5070859;28;20814;-74
2021/06/14 09:17:51;;;;;;;1.83;0.80;;;;;;;;;;5082773;28;20553;-74
2021/06/14 09:20:17;;;;;;;1.73;1.07;;;;;;;;;;5051527;28;20404;-74
2021/06/14 09:22:43;;;;;;;1.83;0.67;;;;;;;;;;5044812;28;21369;-75
2021/06/14 09:25:17;;;;;;;0.70;0.70;;;;;;;;;;5034699;28;20465;-75
2021/06/14 09:27:47;;;;;;;2.17;0.80;;;;;;;;;;5037205;28;20464;-75
2021/06/14 09:30:17;;;;;;;0.70;0.67;;;;;;;;;;5039276;28;20972;-75
2021/06/14 09:33:02;;;;;;;0.80;0.80;;;;;;;;;;5045012;28;20429;-75
2021/06/14 09:35:32;;;;;;;0.63;0.57;;;;;;;;;;5051167;28;20408;-75
2021/06/14 09:38:00;;;;;;;1.20;1.10;;;;;;;;;;5043339;28;20900;-75
2021/06/14 09:40:26;;;;;;;1.37;0.77;;;;;;;;;;5048091;28;20910;-75
2021/06/14 09:42:52;;;;;;;0.80;0.70;;;;;;;;;;5047575;28;20430;-77
2021/06/14 09:45:22;;;;;;;2.40;0.80;;;;;;;;;;5047187;28;20801;-75
2021/06/14 09:47:49;;;;;;;1.07;0.97;;;;;;;;;;5044930;28;20946;-75
2021/06/14 09:50:22;;;;;;;1.20;1.07;;;;;;;;;;5051603;28;20911;-75
2021/06/14 09:52:51;;;;;;;1.30;1.03;;;;;;;;;;5055767;28;20463;-75
2021/06/14 09:55:17;;;;;;;1.23;1.13;;;;;;;;;;5054004;28;20424;-75
2021/06/14 09:57:43;;;;;;;1.30;1.03;;;;;;;;;;5050816;28;20541;-75
2021/06/14 10:00:14;;;;;;;0.90;0.80;;;;;;;;;;5038562;28;20434;-75
2021/06/14 10:02:40;;;;;;;1.20;1.10;;;;;;;;;;5045866;28;20432;-74
2021/06/14 10:05:19;;;;;;;0.70;0.60;;;;;;;;;;5053087;28;20966;-75
2021/06/14 10:07:50;;;;;;;5.13;1.47;;;;;;;;;;5050971;28;20496;-74
2021/06/14 10:10:21;;;;;;;1.47;0.87;;;;;;;;;;5053311;28;20452;-75
2021/06/14 10:12:57;;;;;;;1.17;0.67;;;;;;;;;;5054581;28;20911;-74
2021/06/14 10:15:37;;;;;;;0.90;0.90;;;;;;;;;;5060259;28;20478;-75
2021/06/14 10:18:04;;;;;;;0.90;0.90;;;;;;;;;;5060108;28;20463;-75
2021/06/14 10:20:31;;;;;;;0.60;0.50;;;;;;;;;;5055728;28;20428;-75
2021/06/14 10:22:58;;;;;;;0.77;0.77;;;;;;;;;;5056093;28;20420;-75
2021/06/14 10:25:26;;;;;;;0.77;0.77;;;;;;;;;;5052629;28;20433;-74
2021/06/14 10:27:52;;;;;;;0.80;0.77;;;;;;;;;;5053800;28;20464;-74
2021/06/14 10:30:20;;;;;;;1.00;0.70;;;;;;;;;;5052419;28;20952;-76
2021/06/14 10:32:46;;;;;;;0.70;0.60;;;;;;;;;;5054409;28;20579;-75
2021/06/14 10:35:14;;;;;;;1.33;0.90;;;;;;;;;;5046006;28;20446;-75
2021/06/14 10:37:43;;;;;;;1.43;1.03;;;;;;;;;;5051718;28;20474;-76
2021/06/14 10:40:10;;;;;;;1.00;0.87;;;;;;;;;;5051809;28;20459;-75
2021/06/14 10:42:36;;;;;;;0.77;0.77;;;;;;;;;;5043181;28;20442;-75
2021/06/14 10:45:03;;;;;;;0.80;0.73;;;;;;;;;;5044686;28;20454;-76
2021/06/14 10:47:29;;;;;;;1.10;1.00;;;;;;;;;;5045544;28;20447;-75
2021/06/14 10:49:56;;;;;;;0.70;0.60;;;;;;;;;;5053363;28;20467;-75
2021/06/14 10:52:22;;;;;;;1.17;0.80;;;;;;;;;;5054053;28;20427;-76
2021/06/14 10:54:49;;;;;;;0.93;0.70;;;;;;;;;;5043965;28;20904;-76
2021/06/14 10:57:15;;;;;;;2.20;0.83;;;;;;;;;;5053477;28;20461;-75
2021/06/14 10:59:45;;;;;;;0.70;0.70;;;;;;;;;;5053131;28;20460;-75
2021/06/14 11:02:12;;;;;;;0.73;0.70;;;;;;;;;;5051700;28;21044;-75
2021/06/14 11:04:38;;;;;;;0.80;0.80;;;;;;;;;;5051167;28;20435;-75
2021/06/14 11:07:05;;;;;;;0.90;0.80;;;;;;;;;;5053150;28;20437;-75
2021/06/14 11:09:38;;;;;;;0.70;0.60;;;;;;;;;;5054930;28;21043;-75
2021/06/14 11:12:05;;;;;;;0.60;0.50;;;;;;;;;;5053499;28;20425;-75
2021/06/14 11:14:33;;;;;;;0.70;0.60;;;;;;;;;;5053533;28;20411;-76
2021/06/14 11:17:00;;;;;;;0.70;0.60;;;;;;;;;;5053298;28;20886;-76
2021/06/14 11:19:36;;;;;;;3.07;1.60;;;;;;;;;;5052171;28;20523;-75
2021/06/14 11:22:02;;;;;;;0.90;0.90;;;;;;;;;;5053469;28;20476;-75
2021/06/14 11:24:35;;;;;;;0.97;0.87;;;;;;;;;;5053259;28;20505;-75
2021/06/14 11:27:01;;;;;;;1.37;0.93;;;;;;;;;;5053048;28;20419;-75
2021/06/14 11:29:27;;;;;;;1.60;0.90;;;;;;;;;;5053351;28;20517;-75
2021/06/14 11:32:00;;;;;;;1.37;0.70;;;;;;;;;;5053109;28;20424;-76
2021/06/14 11:34:27;;;;;;;0.90;0.90;;;;;;;;;;5052852;28;20416;-75
2021/06/14 11:36:56;;;;;;;0.60;0.60;;;;;;;;;;5050260;28;20474;-75
2021/06/14 11:39:22;;;;;;;0.80;0.80;;;;;;;;;;5052992;28;20532;-76
2021/06/14 11:41:48;;;;;;;1.03;0.97;;;;;;;;;;5033321;28;20419;-75
2021/06/14 11:44:23;;;;;;;0.70;0.70;;;;;;;;;;5033097;28;20504;-76
2021/06/14 11:46:49;;;;;;;0.70;0.70;;;;;;;;;;5032833;28;20408;-76
2021/06/14 11:49:15;;;;;;;0.80;0.70;;;;;;;;;;5051651;28;20443;-75
2021/06/14 11:51:41;;;;;;;1.00;0.90;;;;;;;;;;5052997;28;20414;-75
2021/06/14 11:54:08;;;;;;;0.70;0.60;;;;;;;;;;5052042;28;20439;-75
2021/06/14 11:56:36;;;;;;;0.70;0.70;;;;;;;;;;5052433;28;20491;-74
2021/06/14 11:59:03;;;;;;;0.90;0.90;;;;;;;;;;5051364;28;20834;-75
2021/06/14 12:01:31;;;;;;;0.90;0.90;;;;;;;;;;5051966;28;20427;-75
2021/06/14 12:03:58;;;;;;;0.80;0.80;;;;;;;;;;5051554;28;20938;-75
2021/06/14 12:06:24;;;;;;;0.70;0.70;;;;;;;;;;5052406;28;20439;-75
2021/06/14 12:08:50;;;;;;;0.87;0.87;;;;;;;;;;5051061;28;20475;-75
2021/06/14 12:11:16;;;;;;;0.70;0.60;;;;;;;;;;5050727;28;20432;-75
2021/06/14 12:13:42;;;;;;;0.70;0.63;;;;;;;;;;5066589;28;20432;-75
2021/06/14 12:16:08;;;;;;;1.07;0.70;;;;;;;;;;5051211;28;20447;-75
2021/06/14 12:18:34;;;;;;;0.60;0.60;;;;;;;;;;5052225;28;20951;-74
2021/06/14 12:21:08;;;;;;;0.77;0.67;;;;;;;;;;5067800;28;20926;-75
2021/06/14 12:23:35;;;;;;;0.70;0.67;;;;;;;;;;5052352;28;20450;-75
2021/06/14 12:26:05;;;;;;;2.07;0.67;;;;;;;;;;5052012;28;20412;-74
2021/06/14 12:28:33;;;;;;;0.83;0.83;;;;;;;;;;5052020;28;20428;-74
2021/06/14 12:31:00;;;;;;;0.70;0.60;;;;;;;;;;5051415;28;20405;-75
2021/06/14 12:33:30;;;;;;;0.70;0.70;;;;;;;;;;5053394;28;20416;-75
2021/06/14 12:35:56;;;;;;;0.90;0.80;;;;;;;;;;5087503;28;20438;-74
2021/06/14 12:38:24;;;;;;;0.60;0.60;;;;;;;;;;5051069;28;20836;-75
2021/06/14 12:40:50;;;;;;;0.80;0.70;;;;;;;;;;5039475;28;20478;-75
2021/06/14 12:43:16;;;;;;;0.53;0.53;;;;;;;;;;5040727;28;20459;-76
2021/06/14 12:45:43;;;;;;;0.60;0.60;;;;;;;;;;5036846;28;20437;-74
2021/06/14 12:48:11;;;;;;;0.80;0.80;;;;;;;;;;5037703;28;20498;-74
2021/06/14 12:50:42;;;;;;;0.70;0.70;;;;;;;;;;5041223;28;20419;-74
2021/06/14 12:53:08;;;;;;;0.87;0.87;;;;;;;;;;5057252;28;20461;-75
2021/06/14 12:55:36;;;;;;;0.70;0.60;;;;;;;;;;5050582;28;20408;-74
2021/06/14 12:58:03;;;;;;;0.60;0.60;;;;;;;;;;5036798;28;20487;-74
2021/06/14 13:00:33;;;;;;;0.93;0.67;;;;;;;;;;5050005;28;20765;-74
2021/06/14 13:03:00;;;;;;;0.60;0.60;;;;;;;;;;5047285;28;20859;-74
2021/06/14 13:05:27;;;;;;;0.90;0.90;;;;;;;;;;5039697;28;20408;-74
2021/06/14 13:07:56;;;;;;;0.83;0.60;;;;;;;;;;5050871;28;20442;-75
2021/06/14 13:10:24;;;;;;;0.80;0.60;;;;;;;;;;5050851;28;20463;-74
2021/06/14 13:12:50;;;;;;;0.70;0.70;;;;;;;;;;5058960;28;20453;-74
2021/06/14 13:15:16;;;;;;;1.23;1.13;;;;;;;;;;5051023;28;20424;-74
2021/06/14 13:17:44;;;;;;;0.70;0.60;;;;;;;;;;5052780;28;20464;-74
2021/06/14 13:20:10;;;;;;;0.60;0.60;;;;;;;;;;5051401;28;20527;-74
2021/06/14 13:22:36;;;;;;;0.70;0.70;;;;;;;;;;5050098;28;20420;-74
2021/06/14 13:25:07;;;;;;;0.70;0.70;;;;;;;;;;5051594;28;20421;-74
2021/06/14 13:27:33;;;;;;;0.60;0.60;;;;;;;;;;5039731;28;20478;-74
2021/06/14 13:29:59;;;;;;;0.70;0.60;;;;;;;;;;5031571;28;20429;-75
2021/06/14 13:32:31;;;;;;;0.50;0.50;;;;;;;;;;5031601;28;20464;-75
2021/06/14 13:34:58;;;;;;;0.50;0.50;;;;;;;;;;5033897;28;20405;-75
2021/06/14 13:37:37;;;;;;;1.20;1.10;;;;;;;;;;5049387;28;21304;-74
2021/06/14 13:40:07;;;;;;;0.80;0.63;;;;;;;;;;5054075;28;20444;-75
2021/06/14 13:42:40;;;;;;;0.80;0.80;;;;;;;;;;5055254;28;20435;-74
2021/06/14 13:45:07;;;;;;;1.10;0.80;;;;;;;;;;5057931;28;20517;-74
2021/06/14 13:47:32;;;;;;;0.70;0.70;;;;;;;;;;5054640;28;20415;-74
2021/06/14 13:50:04;;;;;;;0.80;0.80;;;;;;;;;;5055244;28;20431;-75
2021/06/14 13:52:30;;;;;;;0.70;0.70;;;;;;;;;;5070964;28;20948;-74
2021/06/14 13:54:57;;;;;;;0.67;0.67;;;;;;;;;;5054398;28;20518;-75
2021/06/14 13:57:23;;;;;;;2.90;0.90;;;;;;;;;;5054648;28;20487;-74
2021/06/14 13:59:50;;;;;;;0.63;0.63;;;;;;;;;;5053436;28;20444;-74
2021/06/14 14:02:24;;;;;;;0.97;0.90;;;;;;;;;;5054043;28;20473;-74
2021/06/14 14:04:50;;;;;;;0.70;0.70;;;;;;;;;;5055011;28;20944;-74
2021/06/14 14:07:16;;;;;;;0.90;0.70;;;;;;;;;;5054655;28;20439;-74
2021/06/14 14:09:43;;;;;;;0.60;0.53;;;;;;;;;;5054696;28;20498;-74
2021/06/14 14:12:09;;;;;;;1.00;0.80;;;;;;;;;;5054824;28;20470;-75
2021/06/14 14:14:35;;;;;;;0.83;0.83;;;;;;;;;;5054451;28;20414;-74
2021/06/14 14:17:01;;;;;;;0.70;0.70;;;;;;;;;;5050698;28;20495;-75
2021/06/14 14:19:29;;;;;;;0.80;0.70;;;;;;;;;;5052262;28;20982;-74
2021/06/14 14:21:56;;;;;;;0.97;0.83;;;;;;;;;;5054627;28;20412;-75
2021/06/14 14:24:22;;;;;;;2.83;0.73;;;;;;;;;;5052855;28;20523;-75
2021/06/14 14:26:49;;;;;;;0.90;0.90;;;;;;;;;;5053404;28;20439;-75
2021/06/14 14:29:19;;;;;;;0.73;0.70;;;;;;;;;;5054004;28;20531;-76
2021/06/14 14:31:50;;;;;;;0.80;0.70;;;;;;;;;;5038700;28;20861;-75
2021/06/14 14:34:17;;;;;;;0.73;0.70;;;;;;;;;;5044335;28;20942;-74
2021/06/14 14:36:48;;;;;;;1.53;1.00;;;;;;;;;;5053943;28;20455;-75
2021/06/14 14:39:15;;;;;;;0.80;0.80;;;;;;;;;;5048891;28;20986;-75
2021/06/14 14:41:44;;;;;;;1.63;0.87;;;;;;;;;;5054175;28;20416;-74
2021/06/14 14:44:10;;;;;;;0.60;0.60;;;;;;;;;;5051634;28;20844;-75
2021/06/14 14:46:36;;;;;;;1.23;1.13;;;;;;;;;;5052999;28;20416;-75
2021/06/14 14:49:05;;;;;;;1.23;0.93;;;;;;;;;;5053353;28;20432;-74
2021/06/14 14:51:31;;;;;;;1.20;1.20;;;;;;;;;;5045649;28;20425;-76
2021/06/14 14:54:16;;;;;;;1.47;0.77;;;;;;;;;;5046965;28;20482;-76